Terminal Aerodrome Forecast
Issued by NWS Pittsburgh, PA

Current Version | Previous Version | Text Only | Print | Product List | Glossary Off
Versions: 1 2 3 4 5 6 7 8 9 10 11 12 13 14 15 16 17 18 19 20 21 22 23 24 25 26 27 28

000
FTUS41 KPBZ 160904 AAB
TAFPIT
TAF AMD
KPIT 160904Z 1609/1712 24010KT P6SM SCT015 BKN035
     FM161200 25012G22KT P6SM VCSH OVC015
     FM161600 27015G25KT P6SM VCSH OVC025
     FM162300 29012KT P6SM BKN025
     FM170600 30005KT P6SM SCT035=

USA.gov is the U.S. government's official web portal to all federal, state and local government web resources and services.